sensor_id;sensor_type;location;lat;lon;timestamp;pressure;altitude;pressure_sealevel;temperature;humidity
53300;BME280;39187;48.476;8.310;2022-12-05T00:00:00;90838.25;;;-0.94;100.00
53300;BME280;39187;48.476;8.310;2022-12-05T00:02:25;90845.53;;;-1.07;100.00
53300;BME280;39187;48.476;8.310;2022-12-05T00:04:51;90849.59;;;-1.09;100.00
53300;BME280;39187;48.476;8.310;2022-12-05T00:07:16;90853.00;;;-1.05;100.00
53300;BME280;39187;48.476;8.310;2022-12-05T00:09:42;90846.75;;;-1.24;100.00
53300;BME280;39187;48.476;8.310;2022-12-05T00:12:07;90843.78;;;-0.99;100.00
53300;BME280;39187;48.476;8.310;2022-12-05T00:14:33;90851.88;;;-1.31;100.00
53300;BME280;39187;48.476;8.310;2022-12-05T00:16:58;90856.09;;;-1.45;100.00
53300;BME280;39187;48.476;8.310;2022-12-05T00:19:24;90859.63;;;-1.34;100.00
53300;BME280;39187;48.476;8.310;2022-12-05T00:21:49;90858.34;;;-1.21;100.00
53300;BME280;39187;48.476;8.310;2022-12-05T00:24:15;90850.34;;;-1.32;100.00
53300;BME280;39187;48.476;8.310;2022-12-05T00:26:41;90851.34;;;-1.17;100.00
53300;BME280;39187;48.476;8.310;2022-12-05T00:29:07;90843.34;;;-1.01;100.00
53300;BME280;39187;48.476;8.310;2022-12-05T00:31:33;90855.78;;;-0.95;100.00
53300;BME280;39187;48.476;8.310;2022-12-05T00:34:00;90840.94;;;-0.91;100.00
53300;BME280;39187;48.476;8.310;2022-12-05T00:36:28;90844.00;;;-1.08;100.00
53300;BME280;39187;48.476;8.310;2022-12-05T00:38:58;90851.47;;;-1.33;100.00
53300;BME280;39187;48.476;8.310;2022-12-05T00:41:26;90841.78;;;-1.09;100.00
53300;BME280;39187;48.476;8.310;2022-12-05T00:43:52;90839.53;;;-1.07;100.00
53300;BME280;39187;48.476;8.310;2022-12-05T00:46:20;90836.53;;;-1.09;100.00
53300;BME280;39187;48.476;8.310;2022-12-05T00:48:46;90843.84;;;-1.18;100.00
53300;BME280;39187;48.476;8.310;2022-12-05T00:51:30;90848.72;;;-1.17;100.00
53300;BME280;39187;48.476;8.310;2022-12-05T00:54:01;90849.56;;;-1.36;100.00
53300;BME280;39187;48.476;8.310;2022-12-05T00:56:28;90846.69;;;-1.04;100.00
53300;BME280;39187;48.476;8.310;2022-12-05T00:58:55;90857.25;;;-1.20;100.00
53300;BME280;39187;48.476;8.310;2022-12-05T01:01:25;90852.84;;;-1.39;100.00
53300;BME280;39187;48.476;8.310;2022-12-05T01:03:53;90851.66;;;-1.22;100.00
53300;BME280;39187;48.476;8.310;2022-12-05T01:06:19;90844.53;;;-0.99;100.00
53300;BME280;39187;48.476;8.310;2022-12-05T01:08:45;90847.03;;;-1.06;100.00
53300;BME280;39187;48.476;8.310;2022-12-05T01:11:14;90853.63;;;-1.15;100.00
53300;BME280;39187;48.476;8.310;2022-12-05T01:13:40;90859.06;;;-1.24;100.00
53300;BME280;39187;48.476;8.310;2022-12-05T01:16:06;90856.06;;;-1.00;100.00
53300;BME280;39187;48.476;8.310;2022-12-05T01:18:37;90874.69;;;-1.01;100.00
53300;BME280;39187;48.476;8.310;2022-12-05T01:21:04;90871.19;;;-1.12;100.00
53300;BME280;39187;48.476;8.310;2022-12-05T01:23:30;90866.75;;;-1.08;100.00
53300;BME280;39187;48.476;8.310;2022-12-05T01:25:55;90867.88;;;-1.09;100.00
53300;BME280;39187;48.476;8.310;2022-12-05T01:28:21;90867.88;;;-1.09;100.00
53300;BME280;39187;48.476;8.310;2022-12-05T01:30:48;90862.66;;;-0.83;100.00
53300;BME280;39187;48.476;8.310;2022-12-05T01:33:14;90867.72;;;-0.94;100.00
53300;BME280;39187;48.476;8.310;2022-12-05T01:35:40;90863.88;;;-0.77;100.00
53300;BME280;39187;48.476;8.310;2022-12-05T01:38:07;90865.19;;;-0.90;100.00
53300;BME280;39187;48.476;8.310;2022-12-05T01:40:34;90880.41;;;-0.69;100.00
53300;BME280;39187;48.476;8.310;2022-12-05T01:43:03;90889.59;;;-0.79;100.00
53300;BME280;39187;48.476;8.310;2022-12-05T01:45:39;90896.72;;;-0.76;100.00
53300;BME280;39187;48.476;8.310;2022-12-05T01:48:09;90890.28;;;-0.82;100.00
53300;BME280;39187;48.476;8.310;2022-12-05T01:50:36;90890.47;;;-0.71;100.00
53300;BME280;39187;48.476;8.310;2022-12-05T01:53:02;90883.72;;;-0.46;100.00
53300;BME280;39187;48.476;8.310;2022-12-05T01:55:29;90889.00;;;-0.43;100.00
53300;BME280;39187;48.476;8.310;2022-12-05T01:57:55;90890.25;;;-0.59;100.00
53300;BME280;39187;48.476;8.310;2022-12-05T02:00:22;90890.72;;;-0.54;100.00
53300;BME280;39187;48.476;8.310;2022-12-05T02:03:08;90895.06;;;-0.61;100.00
53300;BME280;39187;48.476;8.310;2022-12-05T02:05:36;90907.91;;;-0.53;100.00
53300;BME280;39187;48.476;8.310;2022-12-05T02:08:05;90912.31;;;-0.57;100.00
53300;BME280;39187;48.476;8.310;2022-12-05T02:10:47;90925.38;;;-0.57;100.00
53300;BME280;39187;48.476;8.310;2022-12-05T02:30:31;90940.31;;;-0.31;100.00
53300;BME280;39187;48.476;8.310;2022-12-05T02:33:07;90924.28;;;-0.29;100.00
53300;BME280;39187;48.476;8.310;2022-12-05T02:35:54;90934.13;;;-0.19;100.00
53300;BME280;39187;48.476;8.310;2022-12-05T02:41:29;90932.53;;;-0.27;100.00
53300;BME280;39187;48.476;8.310;2022-12-05T02:44:24;90936.00;;;-0.20;100.00
53300;BME280;39187;48.476;8.310;2022-12-05T02:46:54;90942.81;;;-0.12;100.00
53300;BME280;39187;48.476;8.310;2022-12-05T02:49:25;90933.97;;;-0.04;100.00
53300;BME280;39187;48.476;8.310;2022-12-05T02:51:56;90934.03;;;0.00;100.00
53300;BME280;39187;48.476;8.310;2022-12-05T02:54:26;90927.94;;;0.22;100.00
53300;BME280;39187;48.476;8.310;2022-12-05T02:56:55;90928.25;;;0.17;100.00
53300;BME280;39187;48.476;8.310;2022-12-05T02:59:22;90929.59;;;0.37;100.00
53300;BME280;39187;48.476;8.310;2022-12-05T03:01:48;90924.59;;;0.25;100.00
53300;BME280;39187;48.476;8.310;2022-12-05T03:04:15;90918.44;;;0.11;100.00
53300;BME280;39187;48.476;8.310;2022-12-05T03:06:48;90917.16;;;-0.03;100.00
53300;BME280;39187;48.476;8.310;2022-12-05T03:09:21;90924.94;;;-0.06;100.00
53300;BME280;39187;48.476;8.310;2022-12-05T03:11:59;90926.44;;;-0.09;100.00
53300;BME280;39187;48.476;8.310;2022-12-05T03:14:36;90926.09;;;-0.04;100.00
53300;BME280;39187;48.476;8.310;2022-12-05T03:17:08;90932.78;;;-0.06;100.00
53300;BME280;39187;48.476;8.310;2022-12-05T03:25:34;90917.44;;;0.19;100.00
53300;BME280;39187;48.476;8.310;2022-12-05T03:28:03;90914.47;;;-0.06;100.00
53300;BME280;39187;48.476;8.310;2022-12-05T03:30:34;90926.69;;;0.13;100.00
53300;BME280;39187;48.476;8.310;2022-12-05T03:33:10;90923.47;;;-0.07;100.00
53300;BME280;39187;48.476;8.310;2022-12-05T03:35:52;90927.28;;;-0.01;100.00
53300;BME280;39187;48.476;8.310;2022-12-05T03:38:34;90941.47;;;-0.02;100.00
53300;BME280;39187;48.476;8.310;2022-12-05T03:43:51;90941.91;;;0.04;100.00
53300;BME280;39187;48.476;8.310;2022-12-05T03:49:02;90946.72;;;0.02;100.00
53300;BME280;39187;48.476;8.310;2022-12-05T03:51:33;90949.94;;;0.18;100.00
53300;BME280;39187;48.476;8.310;2022-12-05T03:54:10;90944.50;;;0.04;100.00
53300;BME280;39187;48.476;8.310;2022-12-05T03:56:42;90946.13;;;0.12;100.00
53300;BME280;39187;48.476;8.310;2022-12-05T03:59:17;90949.00;;;0.03;100.00
53300;BME280;39187;48.476;8.310;2022-12-05T04:01:46;90958.47;;;0.15;100.00
53300;BME280;39187;48.476;8.310;2022-12-05T04:04:17;90954.50;;;0.24;100.00
53300;BME280;39187;48.476;8.310;2022-12-05T04:09:54;90952.91;;;0.16;100.00
53300;BME280;39187;48.476;8.310;2022-12-05T04:12:23;90960.94;;;0.30;100.00
53300;BME280;39187;48.476;8.310;2022-12-05T04:14:53;90960.09;;;0.26;100.00
53300;BME280;39187;48.476;8.310;2022-12-05T04:17:41;90962.16;;;0.40;100.00
53300;BME280;39187;48.476;8.310;2022-12-05T04:20:49;90963.22;;;0.35;100.00
53300;BME280;39187;48.476;8.310;2022-12-05T04:23:26;90962.03;;;0.29;100.00
53300;BME280;39187;48.476;8.310;2022-12-05T04:26:02;90969.38;;;0.20;100.00
53300;BME280;39187;48.476;8.310;2022-12-05T04:28:51;90969.75;;;0.19;100.00
53300;BME280;39187;48.476;8.310;2022-12-05T04:31:24;90971.88;;;0.39;100.00
53300;BME280;39187;48.476;8.310;2022-12-05T04:33:59;90970.81;;;0.44;100.00
53300;BME280;39187;48.476;8.310;2022-12-05T04:37:01;90978.25;;;0.42;100.00
53300;BME280;39187;48.476;8.310;2022-12-05T04:39:57;90979.47;;;0.18;100.00
53300;BME280;39187;48.476;8.310;2022-12-05T04:42:26;90981.66;;;0.46;100.00
53300;BME280;39187;48.476;8.310;2022-12-05T04:44:54;90980.88;;;0.42;100.00
53300;BME280;39187;48.476;8.310;2022-12-05T04:47:26;90984.72;;;0.52;100.00
53300;BME280;39187;48.476;8.310;2022-12-05T04:49:54;90981.00;;;0.53;100.00
53300;BME280;39187;48.476;8.310;2022-12-05T04:52:21;90979.28;;;0.64;100.00
53300;BME280;39187;48.476;8.310;2022-12-05T04:55:01;90968.50;;;0.72;100.00
53300;BME280;39187;48.476;8.310;2022-12-05T04:57:36;90984.03;;;0.58;100.00
53300;BME280;39187;48.476;8.310;2022-12-05T05:00:05;90980.00;;;0.64;100.00
53300;BME280;39187;48.476;8.310;2022-12-05T05:02:39;90982.50;;;0.54;100.00
53300;BME280;39187;48.476;8.310;2022-12-05T05:05:08;90986.91;;;0.46;100.00
53300;BME280;39187;48.476;8.310;2022-12-05T05:07:43;90991.84;;;0.21;100.00
53300;BME280;39187;48.476;8.310;2022-12-05T05:10:12;90996.81;;;0.30;100.00
53300;BME280;39187;48.476;8.310;2022-12-05T05:12:39;90993.91;;;0.38;100.00
53300;BME280;39187;48.476;8.310;2022-12-05T05:15:05;90991.06;;;0.21;100.00
53300;BME280;39187;48.476;8.310;2022-12-05T05:17:30;91002.91;;;0.37;100.00
53300;BME280;39187;48.476;8.310;2022-12-05T05:19:56;91005.84;;;0.36;100.00
53300;BME280;39187;48.476;8.310;2022-12-05T05:22:41;91001.47;;;0.44;100.00
53300;BME280;39187;48.476;8.310;2022-12-05T05:25:07;91019.06;;;0.47;100.00
53300;BME280;39187;48.476;8.310;2022-12-05T05:27:32;91015.84;;;0.57;100.00
53300;BME280;39187;48.476;8.310;2022-12-05T05:29:58;91019.41;;;0.45;100.00
53300;BME280;39187;48.476;8.310;2022-12-05T05:32:23;91025.19;;;0.28;100.00
53300;BME280;39187;48.476;8.310;2022-12-05T05:34:49;91024.59;;;0.38;100.00
53300;BME280;39187;48.476;8.310;2022-12-05T05:37:14;91020.69;;;0.25;100.00
53300;BME280;39187;48.476;8.310;2022-12-05T05:39:40;91010.22;;;0.25;100.00
53300;BME280;39187;48.476;8.310;2022-12-05T05:42:05;91010.88;;;0.18;100.00
53300;BME280;39187;48.476;8.310;2022-12-05T05:44:31;91021.78;;;0.54;100.00
53300;BME280;39187;48.476;8.310;2022-12-05T05:46:56;91026.22;;;0.50;100.00
53300;BME280;39187;48.476;8.310;2022-12-05T05:49:22;91031.16;;;0.25;100.00
53300;BME280;39187;48.476;8.310;2022-12-05T05:51:47;91030.13;;;0.33;100.00
53300;BME280;39187;48.476;8.310;2022-12-05T05:54:13;91038.03;;;0.36;100.00
53300;BME280;39187;48.476;8.310;2022-12-05T05:56:38;91043.03;;;0.49;100.00
53300;BME280;39187;48.476;8.310;2022-12-05T05:59:04;91042.91;;;0.38;100.00
53300;BME280;39187;48.476;8.310;2022-12-05T06:01:30;91043.34;;;0.44;100.00
53300;BME280;39187;48.476;8.310;2022-12-05T06:03:56;91050.00;;;0.67;100.00
53300;BME280;39187;48.476;8.310;2022-12-05T06:06:22;91056.75;;;0.68;100.00
53300;BME280;39187;48.476;8.310;2022-12-05T06:08:48;91056.47;;;0.47;100.00
53300;BME280;39187;48.476;8.310;2022-12-05T06:11:19;91047.41;;;0.37;100.00
53300;BME280;39187;48.476;8.310;2022-12-05T06:13:45;91058.00;;;0.22;100.00
53300;BME280;39187;48.476;8.310;2022-12-05T06:16:14;91065.81;;;0.45;100.00
53300;BME280;39187;48.476;8.310;2022-12-05T06:18:41;91063.69;;;0.27;100.00
53300;BME280;39187;48.476;8.310;2022-12-05T06:21:06;91077.31;;;0.14;100.00
53300;BME280;39187;48.476;8.310;2022-12-05T06:23:34;91077.53;;;0.28;100.00
53300;BME280;39187;48.476;8.310;2022-12-05T06:26:00;91082.88;;;0.09;100.00
53300;BME280;39187;48.476;8.310;2022-12-05T06:28:27;91087.09;;;0.17;100.00
53300;BME280;39187;48.476;8.310;2022-12-05T06:30:52;91084.25;;;0.25;100.00
53300;BME280;39187;48.476;8.310;2022-12-05T06:33:18;91085.44;;;0.05;100.00
53300;BME280;39187;48.476;8.310;2022-12-05T06:35:44;91086.97;;;0.06;100.00
53300;BME280;39187;48.476;8.310;2022-12-05T06:38:10;91089.41;;;0.22;100.00
53300;BME280;39187;48.476;8.310;2022-12-05T06:40:40;91092.09;;;0.25;100.00
53300;BME280;39187;48.476;8.310;2022-12-05T06:43:07;91088.00;;;0.28;100.00
53300;BME280;39187;48.476;8.310;2022-12-05T06:45:32;91099.66;;;0.30;100.00
53300;BME280;39187;48.476;8.310;2022-12-05T06:47:58;91096.47;;;0.18;100.00
53300;BME280;39187;48.476;8.310;2022-12-05T06:50:23;91096.69;;;0.32;100.00
53300;BME280;39187;48.476;8.310;2022-12-05T06:52:50;91088.09;;;0.35;100.00
53300;BME280;39187;48.476;8.310;2022-12-05T06:55:15;91095.63;;;0.66;100.00
53300;BME280;39187;48.476;8.310;2022-12-05T06:57:41;91100.56;;;0.71;100.00
53300;BME280;39187;48.476;8.310;2022-12-05T07:00:07;91096.94;;;0.79;100.00
53300;BME280;39187;48.476;8.310;2022-12-05T07:02:52;91112.34;;;0.58;100.00
53300;BME280;39187;48.476;8.310;2022-12-05T07:05:18;91111.00;;;0.42;100.00
53300;BME280;39187;48.476;8.310;2022-12-05T07:07:44;91111.25;;;0.33;100.00
53300;BME280;39187;48.476;8.310;2022-12-05T07:10:09;91115.00;;;0.32;100.00
53300;BME280;39187;48.476;8.310;2022-12-05T07:12:35;91115.25;;;0.50;100.00
53300;BME280;39187;48.476;8.310;2022-12-05T07:15:01;91104.53;;;0.32;100.00
53300;BME280;39187;48.476;8.310;2022-12-05T07:17:27;91109.41;;;0.33;100.00
53300;BME280;39187;48.476;8.310;2022-12-05T07:19:52;91112.50;;;0.16;100.00
53300;BME280;39187;48.476;8.310;2022-12-05T07:22:19;91112.66;;;0.27;100.00
53300;BME280;39187;48.476;8.310;2022-12-05T07:24:46;91120.88;;;0.25;100.00
53300;BME280;39187;48.476;8.310;2022-12-05T07:27:13;91120.72;;;0.15;100.00
53300;BME280;39187;48.476;8.310;2022-12-05T07:29:39;91115.47;;;0.15;100.00
53300;BME280;39187;48.476;8.310;2022-12-05T07:32:05;91112.31;;;0.28;100.00
53300;BME280;39187;48.476;8.310;2022-12-05T07:34:31;91115.28;;;0.27;100.00
53300;BME280;39187;48.476;8.310;2022-12-05T07:36:56;91120.28;;;0.62;100.00
53300;BME280;39187;48.476;8.310;2022-12-05T07:39:22;91117.72;;;0.13;100.00
53300;BME280;39187;48.476;8.310;2022-12-05T07:41:48;91117.84;;;0.23;100.00
53300;BME280;39187;48.476;8.310;2022-12-05T07:44:13;91116.75;;;0.24;100.00
53300;BME280;39187;48.476;8.310;2022-12-05T07:46:39;91112.41;;;0.09;100.00
53300;BME280;39187;48.476;8.310;2022-12-05T07:49:04;91116.31;;;-0.04;100.00
53300;BME280;39187;48.476;8.310;2022-12-05T07:51:31;91128.63;;;0.18;100.00
53300;BME280;39187;48.476;8.310;2022-12-05T07:53:58;91130.94;;;0.23;100.00
53300;BME280;39187;48.476;8.310;2022-12-05T07:56:24;91139.94;;;0.52;100.00
53300;BME280;39187;48.476;8.310;2022-12-05T07:58:50;91127.72;;;0.33;100.00
53300;BME280;39187;48.476;8.310;2022-12-05T08:01:20;91128.00;;;0.02;100.00
53300;BME280;39187;48.476;8.310;2022-12-05T08:03:46;91127.81;;;0.14;100.00
53300;BME280;39187;48.476;8.310;2022-12-05T08:06:15;91130.78;;;0.13;100.00
53300;BME280;39187;48.476;8.310;2022-12-05T08:08:41;91126.13;;;0.03;100.00
53300;BME280;39187;48.476;8.310;2022-12-05T08:11:11;91121.25;;;0.01;100.00
53300;BME280;39187;48.476;8.310;2022-12-05T08:13:37;91123.84;;;0.01;100.00
53300;BME280;39187;48.476;8.310;2022-12-05T08:16:04;91120.31;;;0.13;100.00
53300;BME280;39187;48.476;8.310;2022-12-05T08:18:30;91135.38;;;-0.04;100.00
53300;BME280;39187;48.476;8.310;2022-12-05T08:21:07;91123.69;;;-0.10;100.00
53300;BME280;39187;48.476;8.310;2022-12-05T08:23:33;91132.28;;;0.14;100.00
53300;BME280;39187;48.476;8.310;2022-12-05T08:26:04;91141.19;;;-0.14;100.00
53300;BME280;39187;48.476;8.310;2022-12-05T08:28:30;91142.25;;;0.05;100.00
53300;BME280;39187;48.476;8.310;2022-12-05T08:31:05;91137.41;;;0.07;100.00
53300;BME280;39187;48.476;8.310;2022-12-05T08:33:31;91140.16;;;0.40;100.00
53300;BME280;39187;48.476;8.310;2022-12-05T08:35:59;91144.53;;;0.32;100.00
53300;BME280;39187;48.476;8.310;2022-12-05T08:38:25;91148.56;;;0.04;100.00
53300;BME280;39187;48.476;8.310;2022-12-05T08:40:51;91149.09;;;0.13;100.00
53300;BME280;39187;48.476;8.310;2022-12-05T08:43:16;91155.00;;;0.32;100.00
53300;BME280;39187;48.476;8.310;2022-12-05T08:45:48;91165.00;;;0.50;100.00
53300;BME280;39187;48.476;8.310;2022-12-05T08:48:14;91172.78;;;0.46;100.00
53300;BME280;39187;48.476;8.310;2022-12-05T08:50:39;91192.00;;;0.08;100.00
53300;BME280;39187;48.476;8.310;2022-12-05T08:53:05;91196.97;;;-0.06;100.00
53300;BME280;39187;48.476;8.310;2022-12-05T08:55:33;91203.00;;;0.17;100.00
53300;BME280;39187;48.476;8.310;2022-12-05T08:57:58;91206.63;;;0.32;100.00
53300;BME280;39187;48.476;8.310;2022-12-05T09:00:24;91210.03;;;0.36;100.00
53300;BME280;39187;48.476;8.310;2022-12-05T09:02:50;91213.50;;;0.21;100.00
53300;BME280;39187;48.476;8.310;2022-12-05T09:05:18;91214.88;;;0.11;100.00
53300;BME280;39187;48.476;8.310;2022-12-05T09:07:44;91200.53;;;0.28;100.00
53300;BME280;39187;48.476;8.310;2022-12-05T09:10:09;91214.09;;;0.11;100.00
53300;BME280;39187;48.476;8.310;2022-12-05T09:12:38;91220.25;;;0.22;100.00
53300;BME280;39187;48.476;8.310;2022-12-05T09:15:08;91230.16;;;0.09;100.00
53300;BME280;39187;48.476;8.310;2022-12-05T09:17:34;91233.06;;;0.27;100.00
53300;BME280;39187;48.476;8.310;2022-12-05T09:20:00;91235.16;;;0.40;100.00
53300;BME280;39187;48.476;8.310;2022-12-05T09:22:25;91233.94;;;0.34;100.00
53300;BME280;39187;48.476;8.310;2022-12-05T09:24:51;91236.13;;;0.32;100.00
53300;BME280;39187;48.476;8.310;2022-12-05T09:27:16;91228.91;;;0.71;100.00
53300;BME280;39187;48.476;8.310;2022-12-05T09:29:42;91232.91;;;0.65;100.00
53300;BME280;39187;48.476;8.310;2022-12-05T09:32:08;91236.75;;;0.71;100.00
53300;BME280;39187;48.476;8.310;2022-12-05T09:34:35;91241.78;;;0.57;100.00
53300;BME280;39187;48.476;8.310;2022-12-05T09:37:03;91244.28;;;0.27;100.00
53300;BME280;39187;48.476;8.310;2022-12-05T09:39:29;91257.50;;;0.12;100.00
53300;BME280;39187;48.476;8.310;2022-12-05T09:42:08;91251.50;;;0.11;100.00
53300;BME280;39187;48.476;8.310;2022-12-05T09:50:17;91251.09;;;0.55;100.00
53300;BME280;39187;48.476;8.310;2022-12-05T09:55:44;91251.09;;;0.55;100.00
53300;BME280;39187;48.476;8.310;2022-12-05T10:05:49;91248.53;;;0.13;100.00
53300;BME280;39187;48.476;8.310;2022-12-05T10:10:47;91247.03;;;0.57;100.00
53300;BME280;39187;48.476;8.310;2022-12-05T10:16:31;91249.03;;;0.67;100.00
53300;BME280;39187;48.476;8.310;2022-12-05T10:19:04;91238.66;;;0.48;100.00
53300;BME280;39187;48.476;8.310;2022-12-05T10:24:29;91236.81;;;0.75;100.00
53300;BME280;39187;48.476;8.310;2022-12-05T10:27:00;91235.06;;;0.83;100.00
53300;BME280;39187;48.476;8.310;2022-12-05T10:29:49;91230.06;;;0.74;100.00
53300;BME280;39187;48.476;8.310;2022-12-05T10:32:25;91222.16;;;0.97;100.00
53300;BME280;39187;48.476;8.310;2022-12-05T10:35:01;91220.56;;;0.89;100.00
53300;BME280;39187;48.476;8.310;2022-12-05T10:37:31;91230.66;;;0.90;100.00
53300;BME280;39187;48.476;8.310;2022-12-05T10:39:57;91226.19;;;0.91;100.00
53300;BME280;39187;48.476;8.310;2022-12-05T10:42:27;91233.56;;;1.08;100.00
53300;BME280;39187;48.476;8.310;2022-12-05T10:45:12;91223.28;;;0.96;100.00
53300;BME280;39187;48.476;8.310;2022-12-05T10:47:38;91222.53;;;1.25;100.00
53300;BME280;39187;48.476;8.310;2022-12-05T10:50:22;91216.03;;;1.15;100.00
53300;BME280;39187;48.476;8.310;2022-12-05T10:52:49;91223.31;;;1.26;100.00
53300;BME280;39187;48.476;8.310;2022-12-05T10:55:17;91224.19;;;1.37;100.00
53300;BME280;39187;48.476;8.310;2022-12-05T10:57:49;91223.66;;;0.98;100.00
53300;BME280;39187;48.476;8.310;2022-12-05T11:00:21;91227.56;;;0.81;100.00
53300;BME280;39187;48.476;8.310;2022-12-05T11:02:48;91226.38;;;1.31;100.00
53300;BME280;39187;48.476;8.310;2022-12-05T11:05:14;91225.16;;;1.25;100.00
53300;BME280;39187;48.476;8.310;2022-12-05T11:07:46;91227.38;;;1.23;100.00
53300;BME280;39187;48.476;8.310;2022-12-05T11:10:33;91228.72;;;1.40;100.00
53300;BME280;39187;48.476;8.310;2022-12-05T11:12:59;91228.75;;;1.13;100.00
53300;BME280;39187;48.476;8.310;2022-12-05T11:15:27;91223.09;;;1.11;100.00
53300;BME280;39187;48.476;8.310;2022-12-05T11:17:55;91227.50;;;1.04;100.00
53300;BME280;39187;48.476;8.310;2022-12-05T11:22:49;91227.28;;;1.16;100.00
53300;BME280;39187;48.476;8.310;2022-12-05T11:28:22;91221.44;;;1.00;100.00
53300;BME280;39187;48.476;8.310;2022-12-05T11:31:21;91221.66;;;1.14;100.00
53300;BME280;39187;48.476;8.310;2022-12-05T11:34:10;91221.91;;;1.05;100.00
53300;BME280;39187;48.476;8.310;2022-12-05T11:36:50;91219.69;;;1.07;100.00
53300;BME280;39187;48.476;8.310;2022-12-05T11:39:18;91217.00;;;1.04;100.00
53300;BME280;39187;48.476;8.310;2022-12-05T11:42:05;91206.34;;;0.63;100.00
53300;BME280;39187;48.476;8.310;2022-12-05T12:06:27;91199.16;;;0.34;100.00
53300;BME280;39187;48.476;8.310;2022-12-05T12:27:13;91207.97;;;0.49;100.00
53300;BME280;39187;48.476;8.310;2022-12-05T12:33:10;91213.78;;;0.38;100.00
53300;BME280;39187;48.476;8.310;2022-12-05T12:35:50;91215.66;;;0.15;100.00
53300;BME280;39187;48.476;8.310;2022-12-05T12:38:32;91213.41;;;0.36;100.00
53300;BME280;39187;48.476;8.310;2022-12-05T12:50:19;91220.50;;;0.85;100.00
53300;BME280;39187;48.476;8.310;2022-12-05T12:55:48;91229.84;;;0.60;100.00
53300;BME280;39187;48.476;8.310;2022-12-05T12:58:28;91230.50;;;0.53;100.00
53300;BME280;39187;48.476;8.310;2022-12-05T13:03:59;91225.78;;;0.62;100.00
53300;BME280;39187;48.476;8.310;2022-12-05T13:06:33;91219.03;;;0.61;100.00
53300;BME280;39187;48.476;8.310;2022-12-05T13:09:10;91214.50;;;0.35;100.00
53300;BME280;39187;48.476;8.310;2022-12-05T13:11:40;91220.31;;;0.48;100.00
53300;BME280;39187;48.476;8.310;2022-12-05T13:14:11;91218.47;;;0.49;100.00
53300;BME280;39187;48.476;8.310;2022-12-05T13:16:43;91215.13;;;0.52;100.00
53300;BME280;39187;48.476;8.310;2022-12-05T13:19:29;91214.84;;;0.57;100.00
53300;BME280;39187;48.476;8.310;2022-12-05T13:22:02;91218.66;;;0.36;100.00
53300;BME280;39187;48.476;8.310;2022-12-05T13:24:28;91217.47;;;0.57;100.00
53300;BME280;39187;48.476;8.310;2022-12-05T13:26:58;91216.50;;;0.68;100.00
53300;BME280;39187;48.476;8.310;2022-12-05T13:29:31;91204.13;;;0.92;100.00
53300;BME280;39187;48.476;8.310;2022-12-05T13:32:00;91214.31;;;0.70;100.00
53300;BME280;39187;48.476;8.310;2022-12-05T13:36:55;91205.38;;;0.75;100.00
53300;BME280;39187;48.476;8.310;2022-12-05T13:39:40;91214.06;;;1.09;100.00
53300;BME280;39187;48.476;8.310;2022-12-05T13:42:26;91216.75;;;1.12;100.00
53300;BME280;39187;48.476;8.310;2022-12-05T13:44:57;91212.38;;;0.94;100.00
53300;BME280;39187;48.476;8.310;2022-12-05T13:50:13;91219.25;;;0.75;100.00
53300;BME280;39187;48.476;8.310;2022-12-05T13:53:23;91216.22;;;0.73;100.00
53300;BME280;39187;48.476;8.310;2022-12-05T13:56:06;91208.22;;;0.63;100.00
53300;BME280;39187;48.476;8.310;2022-12-05T13:58:52;91212.06;;;0.72;100.00
53300;BME280;39187;48.476;8.310;2022-12-05T14:04:01;91220.66;;;0.96;100.00
53300;BME280;39187;48.476;8.310;2022-12-05T14:17:40;91227.13;;;0.53;100.00
53300;BME280;39187;48.476;8.310;2022-12-05T14:33:42;91222.06;;;0.40;100.00
53300;BME280;39187;48.476;8.310;2022-12-05T14:36:15;91226.53;;;0.63;100.00
53300;BME280;39187;48.476;8.310;2022-12-05T14:38:41;91222.00;;;0.60;100.00
53300;BME280;39187;48.476;8.310;2022-12-05T14:41:25;91220.78;;;0.80;100.00
53300;BME280;39187;48.476;8.310;2022-12-05T14:43:54;91227.97;;;0.83;100.00
53300;BME280;39187;48.476;8.310;2022-12-05T14:46:25;91228.09;;;0.94;100.00
53300;BME280;39187;48.476;8.310;2022-12-05T14:48:51;91226.22;;;0.68;100.00
53300;BME280;39187;48.476;8.310;2022-12-05T14:54:17;91237.09;;;0.96;100.00
53300;BME280;39187;48.476;8.310;2022-12-05T14:56:47;91234.19;;;0.75;100.00
53300;BME280;39187;48.476;8.310;2022-12-05T14:59:30;91242.72;;;0.68;100.00
53300;BME280;39187;48.476;8.310;2022-12-05T15:02:01;91249.16;;;0.74;100.00
53300;BME280;39187;48.476;8.310;2022-12-05T15:04:45;91244.25;;;0.73;100.00
53300;BME280;39187;48.476;8.310;2022-12-05T15:07:18;91250.31;;;0.77;100.00
53300;BME280;39187;48.476;8.310;2022-12-05T15:10:00;91258.13;;;0.73;100.00
53300;BME280;39187;48.476;8.310;2022-12-05T15:12:38;91255.19;;;0.78;100.00
53300;BME280;39187;48.476;8.310;2022-12-05T15:17:43;91260.97;;;0.65;100.00
53300;BME280;39187;48.476;8.310;2022-12-05T15:26:02;91259.00;;;0.35;100.00
53300;BME280;39187;48.476;8.310;2022-12-05T15:28:29;91254.91;;;0.15;100.00
53300;BME280;39187;48.476;8.310;2022-12-05T15:30:55;91252.44;;;0.22;100.00
53300;BME280;39187;48.476;8.310;2022-12-05T15:33:22;91249.03;;;0.67;100.00
53300;BME280;39187;48.476;8.310;2022-12-05T15:35:51;91250.03;;;0.59;100.00
53300;BME280;39187;48.476;8.310;2022-12-05T15:38:27;91253.53;;;0.67;100.00
53300;BME280;39187;48.476;8.310;2022-12-05T15:40:54;91248.53;;;0.35;100.00
53300;BME280;39187;48.476;8.310;2022-12-05T15:43:32;91255.28;;;0.36;100.00
53300;BME280;39187;48.476;8.310;2022-12-05T15:46:08;91252.91;;;0.77;100.00
53300;BME280;39187;48.476;8.310;2022-12-05T15:48:34;91254.13;;;0.57;100.00
53300;BME280;39187;48.476;8.310;2022-12-05T15:50:59;91258.13;;;0.73;100.00
53300;BME280;39187;48.476;8.310;2022-12-05T15:53:46;91248.66;;;0.43;100.00
53300;BME280;39187;48.476;8.310;2022-12-05T15:56:13;91252.50;;;0.49;100.00
53300;BME280;39187;48.476;8.310;2022-12-05T15:58:54;91251.13;;;0.58;100.00
53300;BME280;39187;48.476;8.310;2022-12-05T16:01:24;91254.75;;;0.73;100.00